Terminal Aerodrome Forecast
Issued by NWS

Home | Current Version | Previous Version | Text Only | Print | Product List | Glossary On
Versions: 1 2 3 4 5 6 7 8 9 10 11 12 13 14 15 16 17 18 19 20 21 22 23 24 25 26 27 28
556
FTUS42 KJAX 210536
TAFVQQ
TAF
KVQQ 210536Z 2106/2206 23004KT 5SM BR BKN012
      TEMPO 2106/2110 2SM BR OVC004
     FM211000 22005KT 3SM BR OVC003
      TEMPO 2110/2113 1SM BR OVC002
     FM211400 21009KT 6SM BR BKN006
     FM211500 21010KT P6SM SCT020 BKN120
     FM212000 22012G18KT P6SM VCTS BKN040CB=

USA.gov is the U.S. government's official web portal to all federal, state and local government web resources and services.